Time;durP1;ratioP1;P1;durP2;ratioP2;P2;SDS_P1;SDS_P2;PMS_P1;PMS_P2;Temp;Humidity;BMP_temperature;BMP_pressure;BME280_temperature;BME280_humidity;BME280_pressure;Samples;Min_cycle;Max_cycle;Signal;HPM_P1;HPM_P2
2023/09/24 00:00:36;;;;;;;4.15;1.80;;;;;;;;;;5055056;28;20072;-68
2023/09/24 00:03:05;;;;;;;3.03;1.60;;;;;;;;;;5079040;28;20048;-71
2023/09/24 00:05:30;;;;;;;;;;;;;;;;;;5076819;28;20044;-68
2023/09/24 00:07:57;;;;;;;3.67;1.77;;;;;;;;;;5085650;28;20003;-70
2023/09/24 00:10:24;;;;;;;3.90;1.70;;;;;;;;;;5054893;28;20191;-68
2023/09/24 00:12:51;;;;;;;4.65;1.80;;;;;;;;;;5065361;28;20051;-67
2023/09/24 00:15:18;;;;;;;5.88;1.80;;;;;;;;;;5064895;28;20056;-69
2023/09/24 00:17:44;;;;;;;5.97;2.00;;;;;;;;;;5062992;28;20131;-68
2023/09/24 00:20:15;;;;;;;3.22;1.63;;;;;;;;;;5078263;28;20140;-68
2023/09/24 00:22:42;;;;;;;6.03;2.03;;;;;;;;;;5075244;28;20147;-69
2023/09/24 00:25:10;;;;;;;4.72;1.60;;;;;;;;;;5076884;28;20068;-67
2023/09/24 00:27:36;;;;;;;3.88;1.98;;;;;;;;;;5065856;28;20071;-68
2023/09/24 00:30:05;;;;;;;8.90;2.55;;;;;;;;;;5080687;28;20079;-67
2023/09/24 00:32:31;;;;;;;4.20;2.05;;;;;;;;;;5073157;28;20068;-68
2023/09/24 00:34:58;;;;;;;4.55;2.20;;;;;;;;;;5061756;28;20067;-69
2023/09/24 00:37:26;;;;;;;5.78;2.08;;;;;;;;;;5058645;28;20146;-67
2023/09/24 00:39:53;;;;;;;8.80;2.30;;;;;;;;;;5061030;28;20151;-67
2023/09/24 00:42:19;;;;;;;6.97;2.15;;;;;;;;;;5054970;28;20083;-69
2023/09/24 00:44:46;;;;;;;5.95;2.35;;;;;;;;;;5061930;28;20052;-67
2023/09/24 00:47:13;;;;;;;6.15;1.88;;;;;;;;;;5058185;28;20139;-67
2023/09/24 00:49:41;;;;;;;7.45;2.35;;;;;;;;;;5061080;28;20108;-69
2023/09/24 00:52:09;;;;;;;10.95;2.25;;;;;;;;;;5080773;28;20063;-67
2023/09/24 00:54:38;;;;;;;5.25;2.00;;;;;;;;;;5055215;28;20059;-67
2023/09/24 00:57:06;;;;;;;5.30;2.33;;;;;;;;;;5076146;28;20048;-66
2023/09/24 00:59:32;;;;;;;5.27;2.47;;;;;;;;;;5062053;28;20060;-69
2023/09/24 01:01:59;;;;;;;8.68;2.80;;;;;;;;;;5061215;28;20145;-69
2023/09/24 01:04:27;;;;;;;6.68;2.25;;;;;;;;;;5070560;28;20052;-67
2023/09/24 01:06:54;;;;;;;4.88;2.42;;;;;;;;;;5057486;28;20052;-66
2023/09/24 01:09:20;;;;;;;7.63;2.35;;;;;;;;;;5062338;28;20068;-69
2023/09/24 01:11:52;;;;;;;8.35;3.25;;;;;;;;;;5078658;28;20052;-70
2023/09/24 01:14:19;;;;;;;6.13;2.97;;;;;;;;;;5076802;28;20071;-67
2023/09/24 01:16:46;;;;;;;7.35;2.58;;;;;;;;;;5054699;28;20136;-67
2023/09/24 01:19:12;;;;;;;11.75;3.05;;;;;;;;;;5078075;28;20155;-68
2023/09/24 01:21:42;;;;;;;7.00;2.85;;;;;;;;;;5084639;28;20187;-69
2023/09/24 01:24:10;;;;;;;8.98;2.65;;;;;;;;;;5061194;28;20056;-68
2023/09/24 01:26:38;;;;;;;9.43;2.95;;;;;;;;;;5049445;28;20062;-69
2023/09/24 01:29:07;;;;;;;5.97;2.45;;;;;;;;;;5079636;28;20060;-68
2023/09/24 01:31:36;;;;;;;7.00;3.20;;;;;;;;;;5060953;28;20056;-67
2023/09/24 01:34:06;;;;;;;6.30;2.55;;;;;;;;;;5073145;28;20059;-69
2023/09/24 01:36:34;;;;;;;9.30;2.85;;;;;;;;;;5046940;28;20180;-67
2023/09/24 01:39:00;;;;;;;8.70;2.85;;;;;;;;;;5060245;28;20074;-70
2023/09/24 01:41:30;;;;;;;5.82;2.67;;;;;;;;;;5060245;28;20083;-67
2023/09/24 01:43:58;;;;;;;11.02;3.00;;;;;;;;;;5060373;28;20052;-67
2023/09/24 01:46:25;;;;;;;5.83;2.73;;;;;;;;;;5072597;28;20048;-68
2023/09/24 01:48:54;;;;;;;5.57;2.50;;;;;;;;;;5078772;28;20067;-65
2023/09/24 01:51:21;;;;;;;7.32;3.17;;;;;;;;;;5059851;28;20056;-67
2023/09/24 01:53:48;;;;;;;7.28;3.00;;;;;;;;;;5059009;28;20048;-70
2023/09/24 01:56:17;;;;;;;9.40;2.90;;;;;;;;;;5072234;28;20056;-69
2023/09/24 01:58:46;;;;;;;5.32;2.78;;;;;;;;;;5060684;28;20056;-70
2023/09/24 02:01:12;;;;;;;;;;;;;;;;;;5058677;28;20063;-68
2023/09/24 02:03:39;;;;;;;8.80;2.60;;;;;;;;;;5049490;28;19924;-69
2023/09/24 02:06:07;;;;;;;7.78;3.28;;;;;;;;;;5039840;28;20056;-69
2023/09/24 02:08:34;;;;;;;9.40;3.08;;;;;;;;;;5056520;28;20072;-66
2023/09/24 02:11:00;;;;;;;7.72;3.15;;;;;;;;;;5051294;28;20064;-68
2023/09/24 02:13:27;;;;;;;6.10;3.10;;;;;;;;;;5051499;28;20129;-67
2023/09/24 02:15:56;;;;;;;8.68;3.10;;;;;;;;;;5041828;28;20071;-66
2023/09/24 02:18:24;;;;;;;8.23;3.15;;;;;;;;;;5057557;28;20056;-67
2023/09/24 02:20:53;;;;;;;9.10;3.53;;;;;;;;;;5059588;28;20058;-68
2023/09/24 02:23:20;;;;;;;9.65;3.53;;;;;;;;;;5055581;28;20086;-70
2023/09/24 02:25:48;;;;;;;7.85;3.38;;;;;;;;;;5072323;28;20055;-67
2023/09/24 02:28:17;;;;;;;5.93;3.05;;;;;;;;;;5078862;28;20056;-67
2023/09/24 02:33:21;;;;;;;6.57;3.00;;;;;;;;;;5169360;22;20052;-67
2023/09/24 02:35:49;;;;;;;11.52;3.28;;;;;;;;;;5029134;28;20060;-66
2023/09/24 02:38:15;;;;;;;12.68;3.13;;;;;;;;;;5023117;28;20080;-67
2023/09/24 02:40:42;;;;;;;8.60;3.17;;;;;;;;;;5033747;28;20063;-65
2023/09/24 02:43:10;;;;;;;7.50;3.20;;;;;;;;;;5016065;28;20056;-66
2023/09/24 02:45:37;;;;;;;8.63;3.25;;;;;;;;;;5013865;28;20076;-65
2023/09/24 02:48:06;;;;;;;8.48;3.40;;;;;;;;;;5036861;28;20095;-65
2023/09/24 02:50:34;;;;;;;6.88;2.72;;;;;;;;;;5049797;28;20064;-64
2023/09/24 02:53:04;;;;;;;8.60;2.78;;;;;;;;;;5048408;28;20051;-66
2023/09/24 02:55:31;;;;;;;11.48;3.80;;;;;;;;;;5052090;28;20162;-64
2023/09/24 02:57:58;;;;;;;6.90;2.63;;;;;;;;;;5038736;28;20094;-63
2023/09/24 03:00:33;;;;;;;6.38;3.00;;;;;;;;;;5037449;28;20130;-65
2023/09/24 03:03:00;;;;;;;9.85;3.22;;;;;;;;;;5049679;28;20114;-68
2023/09/24 03:05:28;;;;;;;6.68;2.65;;;;;;;;;;5048952;28;20140;-64
2023/09/24 03:07:59;;;;;;;12.32;3.08;;;;;;;;;;5076708;28;20087;-65
2023/09/24 03:10:26;;;;;;;7.50;2.75;;;;;;;;;;5057162;28;20204;-67
2023/09/24 03:12:55;;;;;;;8.13;2.92;;;;;;;;;;5056945;28;20064;-65
2023/09/24 03:15:22;;;;;;;9.90;2.85;;;;;;;;;;5038946;28;20130;-65
2023/09/24 03:17:48;;;;;;;5.68;2.58;;;;;;;;;;5037817;28;20175;-64
2023/09/24 03:20:16;;;;;;;6.57;2.90;;;;;;;;;;5058005;28;20073;-65
2023/09/24 03:22:46;;;;;;;8.23;2.70;;;;;;;;;;5035535;28;20067;-66
2023/09/24 03:25:17;;;;;;;10.52;3.42;;;;;;;;;;5033055;28;20048;-64
2023/09/24 03:27:44;;;;;;;7.00;2.95;;;;;;;;;;5056830;28;20118;-66
2023/09/24 03:30:14;;;;;;;8.65;3.17;;;;;;;;;;5037563;28;20060;-63
2023/09/24 03:32:41;;;;;;;9.20;2.80;;;;;;;;;;5054546;28;20056;-64
2023/09/24 03:35:10;;;;;;;7.30;2.70;;;;;;;;;;4981577;28;20053;-64
2023/09/24 03:37:40;;;;;;;7.93;2.90;;;;;;;;;;5034942;28;20063;-66
2023/09/24 03:40:10;;;;;;;6.65;2.95;;;;;;;;;;5037998;28;20044;-67
2023/09/24 03:42:39;;;;;;;12.95;3.17;;;;;;;;;;5038557;28;20080;-65
2023/09/24 03:45:08;;;;;;;6.40;2.75;;;;;;;;;;5026097;28;20068;-66
2023/09/24 03:47:34;;;;;;;5.93;2.90;;;;;;;;;;5056164;28;20052;-64
2023/09/24 03:50:01;;;;;;;6.47;2.88;;;;;;;;;;5036703;28;20098;-68
2023/09/24 03:52:28;;;;;;;10.48;2.90;;;;;;;;;;5038173;28;20060;-64
2023/09/24 03:54:54;;;;;;;7.55;2.90;;;;;;;;;;5041737;28;20053;-66
2023/09/24 03:57:21;;;;;;;7.55;2.33;;;;;;;;;;5040914;28;20062;-65
2023/09/24 03:59:50;;;;;;;8.35;3.08;;;;;;;;;;5041842;28;20151;-67
2023/09/24 04:02:16;;;;;;;;;;;;;;;;;;5046570;28;20048;-66
2023/09/24 04:04:43;;;;;;;5.72;2.92;;;;;;;;;;5012132;28;20020;-67
2023/09/24 04:07:10;;;;;;;5.60;2.88;;;;;;;;;;5045929;28;20065;-64
2023/09/24 04:09:36;;;;;;;7.35;3.30;;;;;;;;;;5041084;28;20052;-63
2023/09/24 04:12:04;;;;;;;7.25;2.88;;;;;;;;;;5041364;28;20074;-64
2023/09/24 04:14:31;;;;;;;6.47;2.70;;;;;;;;;;5036076;28;20056;-66
2023/09/24 04:16:59;;;;;;;8.90;2.65;;;;;;;;;;5056466;28;20066;-64
2023/09/24 04:19:27;;;;;;;9.50;3.13;;;;;;;;;;5058042;28;20136;-67
2023/09/24 04:21:54;;;;;;;6.77;3.17;;;;;;;;;;5057183;28;20056;-65
2023/09/24 04:24:21;;;;;;;6.63;2.83;;;;;;;;;;5044699;28;20056;-67
2023/09/24 04:26:47;;;;;;;11.88;3.28;;;;;;;;;;5034781;28;20118;-66
2023/09/24 04:29:15;;;;;;;8.80;3.17;;;;;;;;;;5040452;28;20071;-66
2023/09/24 04:31:42;;;;;;;4.90;2.50;;;;;;;;;;5040212;28;20142;-67
2023/09/24 04:34:12;;;;;;;5.68;2.92;;;;;;;;;;5051895;28;20056;-65
2023/09/24 04:36:39;;;;;;;6.93;3.03;;;;;;;;;;5039154;28;20106;-64
2023/09/24 04:39:06;;;;;;;8.75;2.72;;;;;;;;;;5055497;28;20067;-64
2023/09/24 04:41:34;;;;;;;5.95;3.00;;;;;;;;;;5059094;28;20071;-63
2023/09/24 04:44:01;;;;;;;7.95;3.10;;;;;;;;;;5053656;28;20141;-64
2023/09/24 04:46:28;;;;;;;6.82;3.05;;;;;;;;;;5057227;28;20064;-66
2023/09/24 04:48:54;;;;;;;4.70;2.53;;;;;;;;;;5031622;28;20112;-68
2023/09/24 04:51:22;;;;;;;6.72;3.15;;;;;;;;;;5039798;28;20080;-63
2023/09/24 04:53:49;;;;;;;7.00;3.10;;;;;;;;;;5039249;28;20061;-66
2023/09/24 04:56:14;;;;;;;6.65;3.08;;;;;;;;;;5020475;28;20053;-65
2023/09/24 04:58:41;;;;;;;6.55;2.88;;;;;;;;;;5018200;28;20057;-63
2023/09/24 05:01:08;;;;;;;11.10;3.00;;;;;;;;;;5051621;28;20136;-64
2023/09/24 05:03:36;;;;;;;8.38;3.03;;;;;;;;;;5050554;28;20044;-67
2023/09/24 05:06:05;;;;;;;5.60;2.95;;;;;;;;;;5036075;28;20087;-67
2023/09/24 05:08:33;;;;;;;;;;;;;;;;;;5064699;28;20438;-68
2023/09/24 05:11:00;;;;;;;5.82;2.63;;;;;;;;;;5054632;28;19955;-63
2023/09/24 05:13:27;;;;;;;6.82;2.78;;;;;;;;;;5060236;28;20056;-65
2023/09/24 05:15:59;;;;;;;5.97;2.85;;;;;;;;;;5034727;28;20049;-64
2023/09/24 05:18:27;;;;;;;9.88;2.90;;;;;;;;;;5058093;28;20060;-64
2023/09/24 05:20:53;;;;;;;6.70;2.72;;;;;;;;;;5034199;28;20141;-65
2023/09/24 05:23:20;;;;;;;7.57;2.85;;;;;;;;;;5041786;28;20096;-65
2023/09/24 05:25:48;;;;;;;8.13;3.20;;;;;;;;;;5051670;28;20102;-67
2023/09/24 05:28:15;;;;;;;6.13;2.97;;;;;;;;;;5039808;28;20145;-63
2023/09/24 05:30:42;;;;;;;7.13;3.25;;;;;;;;;;5055941;28;20127;-64
2023/09/24 05:33:08;;;;;;;8.25;3.17;;;;;;;;;;5034712;28;20071;-66
2023/09/24 05:35:35;;;;;;;9.20;3.20;;;;;;;;;;5034748;28;20103;-63
2023/09/24 05:38:02;;;;;;;6.57;3.03;;;;;;;;;;5040061;28;20056;-64
2023/09/24 05:40:28;;;;;;;9.70;3.58;;;;;;;;;;5056248;28;20080;-67
2023/09/24 05:43:01;;;;;;;6.75;3.25;;;;;;;;;;5035938;28;20061;-67
2023/09/24 05:45:27;;;;;;;8.13;2.85;;;;;;;;;;5029771;28;20080;-67
2023/09/24 05:47:54;;;;;;;6.45;2.95;;;;;;;;;;5059856;28;20060;-68
2023/09/24 05:50:20;;;;;;;5.95;2.92;;;;;;;;;;5055132;28;20137;-68
2023/09/24 05:52:48;;;;;;;6.30;3.20;;;;;;;;;;5034478;28;20251;-67
2023/09/24 05:55:14;;;;;;;6.28;2.83;;;;;;;;;;5048189;28;20056;-66
2023/09/24 05:57:41;;;;;;;6.10;3.00;;;;;;;;;;5042605;28;20061;-64
2023/09/24 06:00:10;;;;;;;8.63;2.88;;;;;;;;;;5039291;28;20110;-64
2023/09/24 06:02:39;;;;;;;7.57;3.22;;;;;;;;;;5024943;28;20102;-67
2023/09/24 06:05:06;;;;;;;;;;;;;;;;;;5045943;28;20090;-67
2023/09/24 06:07:33;;;;;;;7.32;2.53;;;;;;;;;;5038333;28;19924;-67
2023/09/24 06:10:04;;;;;;;9.20;3.08;;;;;;;;;;5058141;28;20061;-67
2023/09/24 06:12:31;;;;;;;11.90;4.72;;;;;;;;;;5039686;28;20040;-66
2023/09/24 06:14:58;;;;;;;7.60;4.00;;;;;;;;;;5045403;28;20060;-70
2023/09/24 06:17:27;;;;;;;10.35;4.53;;;;;;;;;;5038451;28;20083;-66
2023/09/24 06:19:55;;;;;;;14.30;6.85;;;;;;;;;;5055941;28;20060;-66
2023/09/24 06:22:23;;;;;;;8.77;4.38;;;;;;;;;;5039085;28;20076;-65
2023/09/24 06:24:51;;;;;;;8.35;3.38;;;;;;;;;;5031102;28;20066;-66
2023/09/24 06:27:19;;;;;;;7.53;3.10;;;;;;;;;;5033103;28;20055;-64
2023/09/24 06:29:46;;;;;;;9.15;3.38;;;;;;;;;;5038056;28;20091;-65
2023/09/24 06:32:13;;;;;;;10.30;3.05;;;;;;;;;;5038130;28;20056;-67
2023/09/24 06:34:41;;;;;;;6.05;3.13;;;;;;;;;;5041499;28;20075;-65
2023/09/24 06:37:08;;;;;;;9.55;3.08;;;;;;;;;;5032800;28;20056;-66
2023/09/24 06:39:35;;;;;;;8.02;3.28;;;;;;;;;;5054303;28;20088;-65
2023/09/24 06:42:02;;;;;;;7.63;3.25;;;;;;;;;;5057226;28;20048;-66
2023/09/24 06:44:29;;;;;;;7.00;3.42;;;;;;;;;;5033916;28;20059;-63
2023/09/24 06:46:56;;;;;;;19.05;8.73;;;;;;;;;;5027445;28;20049;-63
2023/09/24 06:49:22;;;;;;;11.75;5.22;;;;;;;;;;5054873;28;20070;-64
2023/09/24 06:51:52;;;;;;;16.45;4.47;;;;;;;;;;5056196;28;20086;-63
2023/09/24 06:54:19;;;;;;;8.32;3.72;;;;;;;;;;5051068;28;20056;-66
2023/09/24 06:56:46;;;;;;;10.30;2.88;;;;;;;;;;5052052;28;20052;-65
2023/09/24 06:59:13;;;;;;;8.00;3.08;;;;;;;;;;5050945;28;20056;-66
2023/09/24 07:01:39;;;;;;;6.72;2.85;;;;;;;;;;5056111;28;20133;-68
2023/09/24 07:04:06;;;;;;;7.07;3.08;;;;;;;;;;5018946;28;20064;-67
2023/09/24 07:06:35;;;;;;;7.53;3.28;;;;;;;;;;5037741;28;20049;-66
2023/09/24 07:09:05;;;;;;;6.72;3.30;;;;;;;;;;5042982;28;20272;-65
2023/09/24 07:11:34;;;;;;;7.05;3.28;;;;;;;;;;5056176;28;20059;-65
2023/09/24 07:14:01;;;;;;;15.80;5.72;;;;;;;;;;5033379;28;20049;-65
2023/09/24 07:16:28;;;;;;;10.75;4.40;;;;;;;;;;5037391;28;20060;-66
2023/09/24 07:18:56;;;;;;;13.65;7.80;;;;;;;;;;5045457;28;20065;-64
2023/09/24 07:21:25;;;;;;;8.98;3.90;;;;;;;;;;5037596;28;20052;-65
2023/09/24 07:23:52;;;;;;;6.10;3.38;;;;;;;;;;5020444;28;20052;-66
2023/09/24 07:26:22;;;;;;;9.23;3.65;;;;;;;;;;5024900;28;20080;-68
2023/09/24 07:28:49;;;;;;;7.88;3.10;;;;;;;;;;5050316;28;20132;-66
2023/09/24 07:31:17;;;;;;;8.35;3.25;;;;;;;;;;5039213;28;20052;-63
2023/09/24 07:33:44;;;;;;;6.88;3.30;;;;;;;;;;5050349;28;20063;-72
2023/09/24 07:36:11;;;;;;;5.67;2.83;;;;;;;;;;5000893;28;20053;-69
2023/09/24 07:38:40;;;;;;;5.50;2.38;;;;;;;;;;5023092;28;20049;-66
2023/09/24 07:41:08;;;;;;;;;;;;;;;;;;5040108;28;20147;-70
2023/09/24 07:43:37;;;;;;;4.80;2.08;;;;;;;;;;5042902;28;19998;-67
2023/09/24 07:46:04;;;;;;;7.32;3.13;;;;;;;;;;5038850;28;20099;-68
2023/09/24 07:48:31;;;;;;;10.70;4.10;;;;;;;;;;5043243;28;20075;-69
2023/09/24 07:50:59;;;;;;;18.02;4.60;;;;;;;;;;5055210;28;20048;-68
2023/09/24 07:53:26;;;;;;;10.68;4.45;;;;;;;;;;5044079;28;20044;-68
2023/09/24 07:55:56;;;;;;;7.03;2.55;;;;;;;;;;5056718;28;20103;-69
2023/09/24 07:58:23;;;;;;;8.30;2.83;;;;;;;;;;5059313;28;20056;-71
2023/09/24 08:00:53;;;;;;;9.20;3.00;;;;;;;;;;5041699;28;20078;-71
2023/09/24 08:03:20;;;;;;;5.03;2.50;;;;;;;;;;5061102;28;20056;-71
2023/09/24 08:05:47;;;;;;;6.82;2.88;;;;;;;;;;5030540;28;20144;-69
2023/09/24 08:08:14;;;;;;;6.65;2.83;;;;;;;;;;5039433;28;20119;-71
2023/09/24 08:10:40;;;;;;;9.35;2.67;;;;;;;;;;5038170;28;20103;-69
2023/09/24 08:13:07;;;;;;;6.53;2.78;;;;;;;;;;5051026;28;20079;-68
2023/09/24 08:15:35;;;;;;;7.90;2.92;;;;;;;;;;5055483;28;20056;-70
2023/09/24 08:18:08;;;;;;;8.70;2.67;;;;;;;;;;5060367;28;20565;-65
2023/09/24 08:20:40;;;;;;;9.23;2.97;;;;;;;;;;5061817;28;20064;-69
2023/09/24 08:23:07;;;;;;;8.55;3.40;;;;;;;;;;5055402;28;20064;-68
2023/09/24 08:25:34;;;;;;;6.35;2.78;;;;;;;;;;5048380;28;20051;-67
2023/09/24 08:28:01;;;;;;;8.93;2.83;;;;;;;;;;5060985;28;20151;-67
2023/09/24 08:30:30;;;;;;;9.13;2.83;;;;;;;;;;5064057;28;20131;-66
2023/09/24 08:32:57;;;;;;;10.80;2.90;;;;;;;;;;5059239;28;20056;-67
2023/09/24 08:35:25;;;;;;;7.95;2.90;;;;;;;;;;5054655;28;20057;-69
2023/09/24 08:37:53;;;;;;;7.03;2.70;;;;;;;;;;5055972;28;20080;-69
2023/09/24 08:40:20;;;;;;;9.45;3.10;;;;;;;;;;5059852;28;20060;-66
2023/09/24 08:42:48;;;;;;;7.43;3.05;;;;;;;;;;5056744;28;20060;-69
2023/09/24 08:45:18;;;;;;;8.30;2.30;;;;;;;;;;5019204;28;20064;-67
2023/09/24 08:47:45;;;;;;;5.25;2.55;;;;;;;;;;5044263;28;20056;-67
2023/09/24 08:50:13;;;;;;;7.70;2.97;;;;;;;;;;5043072;28;20063;-69
2023/09/24 08:52:43;;;;;;;7.28;3.03;;;;;;;;;;5037406;28;20115;-68
2023/09/24 08:55:10;;;;;;;5.65;2.47;;;;;;;;;;5031895;28;21476;-70
2023/09/24 08:57:37;;;;;;;7.55;3.22;;;;;;;;;;5073897;28;20049;-69
2023/09/24 09:00:11;;;;;;;20.25;7.55;;;;;;;;;;5060199;28;20121;-67
2023/09/24 09:02:39;;;;;;;10.18;4.28;;;;;;;;;;5043411;28;20056;-69
2023/09/24 09:05:21;;;;;;;11.32;3.70;;;;;;;;;;5040361;28;20053;-70
2023/09/24 09:07:58;;;;;;;12.27;5.13;;;;;;;;;;5042495;28;20066;-71
2023/09/24 09:10:27;;;;;;;13.05;4.30;;;;;;;;;;5061254;28;20044;-68
2023/09/24 09:13:03;;;;;;;7.40;3.47;;;;;;;;;;5079472;28;20067;-67
2023/09/24 09:15:30;;;;;;;8.10;3.38;;;;;;;;;;5037966;28;20172;-73
2023/09/24 09:17:57;;;;;;;8.07;2.70;;;;;;;;;;5064400;28;20155;-74
2023/09/24 09:20:40;;;;;;;9.23;3.35;;;;;;;;;;5080730;28;20056;-67
2023/09/24 09:23:12;;;;;;;8.80;3.13;;;;;;;;;;5056960;28;20051;-72
2023/09/24 09:25:51;;;;;;;7.47;3.13;;;;;;;;;;5060567;28;20067;-70
2023/09/24 09:28:22;;;;;;;8.73;2.40;;;;;;;;;;5067320;28;20071;-70
2023/09/24 09:31:02;;;;;;;7.80;2.80;;;;;;;;;;5056214;28;20060;-70
2023/09/24 09:33:31;;;;;;;8.10;2.97;;;;;;;;;;5061601;28;20063;-69
2023/09/24 09:35:58;;;;;;;8.82;2.63;;;;;;;;;;5048278;28;20062;-67
2023/09/24 09:38:27;;;;;;;9.15;2.90;;;;;;;;;;5043757;28;20080;-70
2023/09/24 09:40:55;;;;;;;11.95;3.05;;;;;;;;;;5035638;28;20079;-70
2023/09/24 09:43:24;;;;;;;9.18;3.03;;;;;;;;;;5061519;28;20399;-68
2023/09/24 09:45:53;;;;;;;11.18;5.57;;;;;;;;;;5035677;28;20053;-67
2023/09/24 09:48:28;;;;;;;8.70;3.20;;;;;;;;;;5059164;28;20098;-70
2023/09/24 09:51:02;;;;;;;6.05;2.50;;;;;;;;;;5052749;28;20060;-69
2023/09/24 09:53:34;;;;;;;9.10;2.70;;;;;;;;;;5051199;28;20123;-71
2023/09/24 09:56:02;;;;;;;6.53;2.42;;;;;;;;;;5058199;28;20075;-69
2023/09/24 09:58:32;;;;;;;7.50;2.17;;;;;;;;;;5059307;28;20085;-68
2023/09/24 10:01:00;;;;;;;11.20;2.67;;;;;;;;;;5044849;28;20136;-69
2023/09/24 10:03:28;;;;;;;8.45;2.50;;;;;;;;;;5049825;28;20071;-67
2023/09/24 10:05:56;;;;;;;8.57;2.05;;;;;;;;;;4994527;28;20156;-67
2023/09/24 10:08:42;;;;;;;8.30;2.17;;;;;;;;;;5048339;28;20052;-69
2023/09/24 10:11:10;;;;;;;6.97;1.95;;;;;;;;;;5055705;28;20056;-71
2023/09/24 10:13:50;;;;;;;5.97;1.95;;;;;;;;;;5062468;28;20056;-68
2023/09/24 10:16:38;;;;;;;8.48;2.10;;;;;;;;;;5053047;28;20056;-65
2023/09/24 10:19:06;;;;;;;7.03;1.93;;;;;;;;;;5075200;28;20181;-66
2023/09/24 10:21:34;;;;;;;6.00;2.67;;;;;;;;;;5079762;28;20136;-66
2023/09/24 10:24:49;;;;;;;13.02;3.72;;;;;;;;;;5073417;28;20076;-67
2023/09/24 10:27:21;;;;;;;4.97;1.92;;;;;;;;;;5062060;28;20060;-68
2023/09/24 10:30:03;;;;;;;4.38;1.55;;;;;;;;;;5049564;28;20084;-65
2023/09/24 10:32:43;;;;;;;4.22;1.52;;;;;;;;;;5058142;28;20060;-67
2023/09/24 10:35:12;;;;;;;6.63;1.23;;;;;;;;;;5013820;28;20122;-69
2023/09/24 10:38:00;;;;;;;9.45;1.90;;;;;;;;;;5039408;28;20115;-68
2023/09/24 10:40:28;;;;;;;4.75;1.20;;;;;;;;;;5043141;28;20057;-69
2023/09/24 10:43:17;;;;;;;3.55;1.10;;;;;;;;;;5053793;28;20060;-67
2023/09/24 10:45:44;;;;;;;3.25;1.30;;;;;;;;;;5035581;28;20076;-71
2023/09/24 10:48:12;;;;;;;3.47;1.10;;;;;;;;;;5059572;28;20148;-69
2023/09/24 10:50:44;;;;;;;3.73;1.17;;;;;;;;;;5040898;28;20080;-68
2023/09/24 10:53:11;;;;;;;5.97;1.25;;;;;;;;;;5055083;28;20142;-69
2023/09/24 10:55:43;;;;;;;3.83;1.10;;;;;;;;;;5055582;28;20059;-69
2023/09/24 10:58:13;;;;;;;3.20;1.00;;;;;;;;;;5049852;28;20136;-68
2023/09/24 11:00:43;;;;;;;8.98;1.40;;;;;;;;;;5043981;28;20080;-69
2023/09/24 11:03:12;;;;;;;4.53;1.10;;;;;;;;;;5047285;28;20110;-66
2023/09/24 11:05:44;;;;;;;3.85;1.60;;;;;;;;;;5038642;28;20060;-66
2023/09/24 11:08:13;;;;;;;3.88;1.00;;;;;;;;;;5019708;28;20060;-69
2023/09/24 11:10:39;;;;;;;2.03;1.10;;;;;;;;;;5063050;28;20080;-70
2023/09/24 11:13:07;;;;;;;2.97;1.40;;;;;;;;;;5058918;28;20159;-68
2023/09/24 11:15:35;;;;;;;17.90;8.00;;;;;;;;;;5058062;28;20071;-68
2023/09/24 11:18:05;;;;;;;5.55;2.35;;;;;;;;;;5030090;28;20056;-67
2023/09/24 11:20:34;;;;;;;4.13;1.33;;;;;;;;;;5015788;28;20049;-70
2023/09/24 11:23:03;;;;;;;4.30;1.40;;;;;;;;;;5016885;28;20136;-69
2023/09/24 11:25:30;;;;;;;;;;;;;;;;;;5047370;28;20139;-71
2023/09/24 11:28:00;;;;;;;4.03;1.20;;;;;;;;;;5026277;28;19928;-67
2023/09/24 11:30:40;;;;;;;4.03;1.02;;;;;;;;;;5056165;28;20063;-69
2023/09/24 11:33:20;;;;;;;4.40;1.35;;;;;;;;;;5039246;28;20158;-69
2023/09/24 11:35:48;;;;;;;10.65;2.10;;;;;;;;;;5074786;28;20076;-68
2023/09/24 11:38:27;;;;;;;7.82;1.80;;;;;;;;;;5047660;28;20208;-67
2023/09/24 11:40:54;;;;;;;5.07;1.23;;;;;;;;;;5016490;28;20052;-70
2023/09/24 11:43:20;;;;;;;3.78;1.10;;;;;;;;;;5056619;28;20116;-69
2023/09/24 11:45:48;;;;;;;4.25;1.05;;;;;;;;;;5059324;28;20162;-68
2023/09/24 11:48:17;;;;;;;6.07;2.53;;;;;;;;;;5041825;28;20048;-72
2023/09/24 11:50:47;;;;;;;3.97;1.55;;;;;;;;;;5058292;28;20068;-69
2023/09/24 11:53:14;;;;;;;11.48;2.60;;;;;;;;;;5041039;28;20116;-71
2023/09/24 11:55:42;;;;;;;4.35;1.20;;;;;;;;;;5057184;28;20092;-66
2023/09/24 11:58:09;;;;;;;4.53;1.70;;;;;;;;;;5043206;28;20052;-69
2023/09/24 12:00:37;;;;;;;20.30;6.57;;;;;;;;;;5050433;28;20064;-68
2023/09/24 12:03:05;;;;;;;6.97;1.90;;;;;;;;;;5056069;28;20299;-67
2023/09/24 12:05:33;;;;;;;2.90;1.20;;;;;;;;;;5056973;28;20086;-68
2023/09/24 12:08:02;;;;;;;2.70;1.00;;;;;;;;;;5035600;28;20052;-69
2023/09/24 12:10:29;;;;;;;;;;;;;;;;;;5017496;28;20102;-69
2023/09/24 12:13:01;;;;;;;4.68;1.10;;;;;;;;;;5035064;28;21323;-71
2023/09/24 12:15:29;;;;;;;4.78;1.15;;;;;;;;;;5044084;28;20048;-71
2023/09/24 12:17:56;;;;;;;2.67;1.00;;;;;;;;;;5041414;28;20079;-71
2023/09/24 12:20:22;;;;;;;4.65;1.20;;;;;;;;;;5040306;28;20063;-68
2023/09/24 12:22:49;;;;;;;4.13;1.10;;;;;;;;;;5035545;28;20148;-70
2023/09/24 12:25:17;;;;;;;3.92;0.93;;;;;;;;;;5045744;28;20084;-68
2023/09/24 12:27:44;;;;;;;5.07;1.30;;;;;;;;;;5041826;28;20052;-70
2023/09/24 12:30:12;;;;;;;2.38;1.00;;;;;;;;;;5030430;28;20061;-69
2023/09/24 12:32:39;;;;;;;4.10;0.98;;;;;;;;;;5018341;28;20056;-68
2023/09/24 12:35:08;;;;;;;5.00;1.20;;;;;;;;;;5045192;28;20056;-70
2023/09/24 12:37:35;;;;;;;3.17;1.00;;;;;;;;;;5040447;28;20048;-68
2023/09/24 12:40:07;;;;;;;3.10;0.87;;;;;;;;;;5056568;28;20064;-68
2023/09/24 12:42:36;;;;;;;1.88;0.82;;;;;;;;;;5058375;28;20056;-68
2023/09/24 12:45:13;;;;;;;2.75;0.85;;;;;;;;;;5041328;28;20088;-67
2023/09/24 12:47:42;;;;;;;6.07;1.23;;;;;;;;;;5040982;28;20056;-69
2023/09/24 12:50:11;;;;;;;8.13;2.30;;;;;;;;;;5045424;28;20061;-67
2023/09/24 12:52:41;;;;;;;;;;;;;;;;;;5035637;28;20084;-68
2023/09/24 12:55:10;;;;;;;2.67;1.00;;;;;;;;;;5040742;28;19988;-68
2023/09/24 12:57:40;;;;;;;4.95;1.00;;;;;;;;;;5078762;28;20063;-69
2023/09/24 13:00:11;;;;;;;6.65;1.17;;;;;;;;;;5061306;28;20135;-66
2023/09/24 13:02:40;;;;;;;3.63;1.10;;;;;;;;;;5067320;28;20136;-70
2023/09/24 13:05:10;;;;;;;1.70;0.90;;;;;;;;;;5059624;28;20120;-66
2023/09/24 13:07:39;;;;;;;6.25;1.08;;;;;;;;;;5043149;28;20062;-69
2023/09/24 13:10:08;;;;;;;6.07;1.58;;;;;;;;;;5029333;28;20059;-66
2023/09/24 13:12:39;;;;;;;20.10;8.10;;;;;;;;;;5056047;28;20072;-68
2023/09/24 13:15:07;;;;;;;9.32;3.75;;;;;;;;;;5043326;28;20094;-68
2023/09/24 13:17:34;;;;;;;4.57;1.35;;;;;;;;;;5058997;28;20043;-71
2023/09/24 13:20:00;;;;;;;1.95;0.95;;;;;;;;;;5050662;28;20135;-68
2023/09/24 13:22:29;;;;;;;3.58;0.75;;;;;;;;;;5072147;28;20087;-67
2023/09/24 13:24:57;;;;;;;4.40;1.15;;;;;;;;;;5025314;28;20083;-70
2023/09/24 13:27:24;;;;;;;5.15;1.20;;;;;;;;;;5051522;28;20045;-68
2023/09/24 13:29:53;;;;;;;3.40;0.93;;;;;;;;;;5043559;28;20045;-69
2023/09/24 13:32:21;;;;;;;4.53;1.13;;;;;;;;;;5024976;28;20071;-71
2023/09/24 13:34:50;;;;;;;4.32;1.15;;;;;;;;;;5043529;28;20052;-68
2023/09/24 13:37:17;;;;;;;1.95;0.82;;;;;;;;;;5046815;28;20061;-68
2023/09/24 13:39:44;;;;;;;3.78;1.02;;;;;;;;;;4989329;28;20055;-68
2023/09/24 13:42:13;;;;;;;3.33;1.10;;;;;;;;;;5024594;28;20055;-69
2023/09/24 13:44:39;;;;;;;;;;;;;;;;;;5020121;28;20049;-70
2023/09/24 13:47:08;;;;;;;3.47;0.90;;;;;;;;;;5046768;28;19924;-70
2023/09/24 13:49:36;;;;;;;4.45;1.02;;;;;;;;;;4992398;28;20053;-71
2023/09/24 13:52:03;;;;;;;;;;;;;;;;;;5051170;28;20080;-71
2023/09/24 13:54:34;;;;;;;2.72;0.93;;;;;;;;;;5039677;28;19925;-69
2023/09/24 13:57:01;;;;;;;3.38;0.95;;;;;;;;;;5022261;28;20052;-70
2023/09/24 13:59:28;;;;;;;3.05;0.85;;;;;;;;;;5008814;28;20062;-70
2023/09/24 14:02:03;;;;;;;3.30;1.17;;;;;;;;;;5035937;28;20075;-69
2023/09/24 14:04:33;;;;;;;4.85;1.00;;;;;;;;;;5019600;28;20063;-71
2023/09/24 14:07:00;;;;;;;4.72;1.00;;;;;;;;;;5020972;28;20069;-68
2023/09/24 14:14:57;;;;;;;5.60;1.20;;;;;;;;;;5019904;28;21026;-68
2023/09/24 14:17:24;;;;;;;9.48;4.18;;;;;;;;;;5055671;28;20060;-74
2023/09/24 14:19:54;;;;;;;4.60;1.77;;;;;;;;;;4987838;28;20056;-69
2023/09/24 14:22:21;;;;;;;3.55;1.42;;;;;;;;;;5023474;28;20064;-71
2023/09/24 14:24:48;;;;;;;4.83;1.10;;;;;;;;;;5013576;28;20061;-70
2023/09/24 14:27:15;;;;;;;3.28;1.10;;;;;;;;;;5037844;28;20201;-70
2023/09/24 14:29:42;;;;;;;2.47;1.02;;;;;;;;;;5032833;28;20091;-68
2023/09/24 14:32:09;;;;;;;3.40;0.90;;;;;;;;;;5047867;28;20091;-70
2023/09/24 14:34:36;;;;;;;4.40;1.40;;;;;;;;;;5066279;28;20131;-68
2023/09/24 14:37:04;;;;;;;4.57;1.30;;;;;;;;;;5048140;28;20101;-69
2023/09/24 14:39:32;;;;;;;2.92;1.02;;;;;;;;;;5048203;28;20060;-69
2023/09/24 14:41:59;;;;;;;4.40;1.38;;;;;;;;;;5043302;28;20052;-69
2023/09/24 14:44:31;;;;;;;3.08;1.10;;;;;;;;;;5052762;28;20147;-71
2023/09/24 14:47:01;;;;;;;5.18;0.98;;;;;;;;;;5059367;28;20037;-68
2023/09/24 14:49:31;;;;;;;3.95;2.22;;;;;;;;;;5046757;28;20052;-68
2023/09/24 14:51:58;;;;;;;4.20;1.45;;;;;;;;;;5063201;28;20056;-67
2023/09/24 14:54:29;;;;;;;5.80;1.40;;;;;;;;;;5055584;28;20165;-68
2023/09/24 14:56:56;;;;;;;2.35;1.23;;;;;;;;;;5031784;28;20079;-68
2023/09/24 14:59:23;;;;;;;3.20;1.10;;;;;;;;;;4995331;28;20060;-67
2023/09/24 15:01:50;;;;;;;2.97;1.10;;;;;;;;;;5043429;28;20137;-68